Time;durP1;ratioP1;P1;durP2;ratioP2;P2;SDS_P1;SDS_P2;PMS_P1;PMS_P2;Temp;Humidity;BMP_temperature;BMP_pressure;BME280_temperature;BME280_humidity;BME280_pressure;Samples;Min_cycle;Max_cycle;Signal;HPM_P1;HPM_P2
2022/04/11 00:01:21;;;;;;;7.60;6.37;;;;;;;4.84;74.87;100798.75;5087829;28;20852;-80
2022/04/11 00:03:47;;;;;;;8.23;6.10;;;;;;;4.84;74.83;100798.75;5084002;28;20462;-79
2022/04/11 00:06:12;;;;;;;6.30;5.68;;;;;;;4.85;75.18;100789.66;5091654;28;20869;-79
2022/04/11 00:08:38;;;;;;;7.20;5.83;;;;;;;4.82;74.96;100790.06;5075023;28;20387;-79
2022/04/11 00:11:03;;;;;;;6.77;6.10;;;;;;;4.82;75.12;100784.69;5084575;28;20421;-79
2022/04/11 00:13:29;;;;;;;10.17;6.30;;;;;;;4.79;74.72;100779.72;5071953;28;20840;-79
2022/04/11 00:15:54;;;;;;;7.00;6.30;;;;;;;4.74;74.83;100774.13;5085847;28;20884;-79
2022/04/11 00:18:19;;;;;;;7.97;5.57;;;;;;;4.73;75.03;100770.59;5090065;28;20455;-79
2022/04/11 00:20:47;;;;;;;7.57;6.00;;;;;;;4.72;74.75;100771.63;5075879;28;20390;-80
2022/04/11 00:23:12;;;;;;;5.72;5.13;;;;;;;4.70;74.88;100769.16;5082298;28;20927;-80
2022/04/11 00:25:38;;;;;;;6.22;4.18;;;;;;;4.67;74.33;100766.03;5090199;28;20493;-79
2022/04/11 00:28:03;;;;;;;7.80;4.57;;;;;;;4.55;73.60;100773.81;5074298;28;20479;-80
2022/04/11 00:30:28;;;;;;;6.10;4.53;;;;;;;4.52;73.83;100763.47;5075971;28;20494;-79
2022/04/11 00:32:54;;;;;;;5.00;4.50;;;;;;;4.51;73.53;100767.16;5090077;28;20418;-79
2022/04/11 00:35:19;;;;;;;6.90;4.73;;;;;;;4.51;73.52;100769.84;5079632;28;20415;-79
2022/04/11 00:37:44;;;;;;;5.27;4.50;;;;;;;4.48;73.80;100770.25;5086035;28;20393;-79
2022/04/11 00:40:10;;;;;;;4.83;4.30;;;;;;;4.47;73.65;100760.56;5075468;28;20382;-80
2022/04/11 00:42:35;;;;;;;6.30;4.40;;;;;;;4.45;73.68;100761.75;5088197;28;20875;-79
2022/04/11 00:45:01;;;;;;;8.67;4.80;;;;;;;4.41;73.44;100749.78;5082447;28;20916;-79
2022/04/11 00:47:27;;;;;;;8.40;6.10;;;;;;;4.40;74.22;100756.19;5094794;28;20377;-79
2022/04/11 00:49:56;;;;;;;6.53;5.82;;;;;;;4.41;74.48;100752.47;5076988;28;20456;-79
2022/04/11 00:52:21;;;;;;;8.48;5.97;;;;;;;4.43;74.91;100751.25;5092990;28;20769;-79
2022/04/11 00:54:47;;;;;;;7.47;5.63;;;;;;;4.44;75.07;100758.28;5094625;28;20408;-80
2022/04/11 00:57:15;;;;;;;5.78;5.28;;;;;;;4.44;74.73;100750.22;5080210;28;20407;-79
2022/04/11 00:59:41;;;;;;;7.75;5.65;;;;;;;4.43;74.60;100753.09;5090729;28;20404;-80
2022/04/11 01:02:06;;;;;;;7.30;5.53;;;;;;;4.41;74.71;100747.91;5077070;28;20955;-79
2022/04/11 01:04:31;;;;;;;6.90;4.85;;;;;;;4.40;74.30;100748.97;5094542;28;20489;-79
2022/04/11 01:06:57;;;;;;;7.70;5.60;;;;;;;4.40;74.47;100753.50;5081422;28;20751;-79
2022/04/11 01:09:23;;;;;;;7.13;5.00;;;;;;;4.42;74.12;100749.56;5090728;28;20382;-79
2022/04/11 01:11:49;;;;;;;5.78;5.25;;;;;;;4.39;73.99;100741.94;5079837;28;20821;-79
2022/04/11 01:14:14;;;;;;;5.57;4.80;;;;;;;4.27;74.55;100740.84;5084884;28;20479;-80
2022/04/11 01:16:39;;;;;;;6.97;5.40;;;;;;;4.29;74.40;100740.63;5086439;28;20713;-79
2022/04/11 01:19:05;;;;;;;6.40;5.57;;;;;;;4.27;74.34;100740.84;5077757;28;20432;-79
2022/04/11 01:21:31;;;;;;;5.97;5.03;;;;;;;4.23;74.60;100744.09;5078497;28;20410;-79
2022/04/11 01:23:57;;;;;;;8.73;5.07;;;;;;;4.25;74.49;100734.00;5087168;28;20398;-79
2022/04/11 01:26:23;;;;;;;6.63;5.28;;;;;;;4.27;74.48;100729.28;5084477;28;20398;-79
2022/04/11 01:28:49;;;;;;;8.90;5.23;;;;;;;4.32;74.11;100730.31;5079165;28;20802;-79
2022/04/11 01:31:15;;;;;;;7.70;5.28;;;;;;;4.39;74.11;100725.00;5090262;28;20477;-79
2022/04/11 01:33:40;;;;;;;7.30;4.97;;;;;;;4.45;73.67;100725.03;5089808;28;20406;-79
2022/04/11 01:36:06;;;;;;;6.80;5.07;;;;;;;4.45;73.57;100721.50;5081680;28;20415;-79
2022/04/11 01:38:31;;;;;;;9.97;5.00;;;;;;;4.51;73.83;100723.44;5087556;28;20400;-79
2022/04/11 01:40:57;;;;;;;8.55;5.00;;;;;;;4.56;73.51;100723.66;5081941;28;20406;-79
2022/04/11 01:43:24;;;;;;;7.68;4.93;;;;;;;4.63;73.33;100719.13;5088664;28;20785;-79
2022/04/11 01:45:50;;;;;;;9.57;5.13;;;;;;;4.67;72.90;100721.25;5082558;28;20945;-79
2022/04/11 01:48:16;;;;;;;6.17;5.17;;;;;;;4.69;72.59;100724.53;5080560;28;20461;-80
2022/04/11 01:50:41;;;;;;;5.50;4.97;;;;;;;4.71;72.96;100718.94;5088287;28;20497;-79
2022/04/11 01:53:12;;;;;;;7.87;5.13;;;;;;;4.74;72.80;100707.00;5091211;28;20414;-79
2022/04/11 01:55:37;;;;;;;6.00;5.40;;;;;;;4.78;73.22;100700.19;5084617;28;20910;-79
2022/04/11 01:58:04;;;;;;;9.10;5.90;;;;;;;4.80;72.98;100701.66;5072445;28;20404;-78
2022/04/11 02:00:30;;;;;;;7.18;5.30;;;;;;;4.80;72.93;100700.81;5089726;28;20926;-79
2022/04/11 02:02:55;;;;;;;7.38;5.28;;;;;;;4.82;72.88;100688.84;5077952;28;20409;-79
2022/04/11 02:05:21;;;;;;;6.43;5.32;;;;;;;4.78;72.95;100687.59;5085483;28;20388;-79
2022/04/11 02:07:46;;;;;;;6.38;5.57;;;;;;;4.80;72.90;100688.22;5084881;28;20378;-79
2022/04/11 02:10:11;;;;;;;7.13;5.13;;;;;;;4.80;72.40;100676.66;5078304;28;20384;-79
2022/04/11 02:12:38;;;;;;;6.87;5.37;;;;;;;4.83;72.48;100674.41;5075495;28;20906;-79
2022/04/11 02:15:04;;;;;;;6.97;5.60;;;;;;;4.82;72.35;100671.91;5079810;28;20398;-79
2022/04/11 02:17:29;;;;;;;10.45;6.00;;;;;;;4.82;72.53;100667.38;5088405;28;20414;-79
2022/04/11 02:19:54;;;;;;;6.87;5.20;;;;;;;4.85;72.35;100663.44;5071660;28;20438;-79
2022/04/11 02:22:20;;;;;;;6.43;5.47;;;;;;;4.84;72.11;100659.13;5090149;28;20876;-79
2022/04/11 02:24:45;;;;;;;7.13;5.63;;;;;;;4.84;72.20;100659.13;5087265;28;20452;-79
2022/04/11 02:27:10;;;;;;;7.43;5.35;;;;;;;4.89;72.36;100664.69;5071951;28;20774;-79
2022/04/11 02:29:36;;;;;;;6.87;5.73;;;;;;;4.94;72.46;100655.00;5086201;28;20422;-79
2022/04/11 02:32:01;;;;;;;7.97;5.70;;;;;;;4.99;73.20;100665.13;5089024;28;20404;-79
2022/04/11 02:34:26;;;;;;;7.20;5.57;;;;;;;5.02;72.51;100673.63;5084761;28;20406;-79
2022/04/11 02:36:52;;;;;;;6.90;5.57;;;;;;;5.04;71.96;100663.50;5091149;28;20485;-79
2022/04/11 02:39:17;;;;;;;8.25;5.32;;;;;;;5.06;71.77;100645.31;5092785;28;20374;-79
2022/04/11 02:41:42;;;;;;;5.97;4.90;;;;;;;5.01;71.41;100647.78;5079598;28;20424;-79
2022/04/11 02:44:07;;;;;;;7.43;4.93;;;;;;;5.02;71.86;100638.69;5073706;28;20502;-79
2022/04/11 02:46:33;;;;;;;7.47;5.23;;;;;;;5.04;71.87;100636.63;5078220;28;20394;-79
2022/04/11 02:48:58;;;;;;;8.23;5.40;;;;;;;5.06;71.52;100639.13;5081423;28;20394;-79
2022/04/11 02:51:23;;;;;;;10.10;5.97;;;;;;;5.04;71.78;100647.38;5085696;28;20430;-79
2022/04/11 02:53:49;;;;;;;7.33;4.97;;;;;;;5.05;72.12;100643.66;5090352;28;20382;-79
2022/04/11 02:56:14;;;;;;;7.80;5.27;;;;;;;5.04;71.89;100643.84;5083583;28;20422;-79
2022/04/11 02:58:39;;;;;;;6.90;5.13;;;;;;;5.04;72.11;100633.94;5082684;28;20867;-79
2022/04/11 03:01:05;;;;;;;6.10;4.37;;;;;;;5.04;71.47;100631.25;5084786;28;20806;-79
2022/04/11 03:03:30;;;;;;;6.63;4.70;;;;;;;4.98;71.19;100626.72;5075446;28;20391;-79
2022/04/11 03:05:55;;;;;;;6.17;4.03;;;;;;;4.89;70.74;100629.78;5092652;28;20726;-79
2022/04/11 03:08:20;;;;;;;7.63;4.40;;;;;;;4.91;71.32;100620.50;5083854;28;20384;-79
2022/04/11 03:10:45;;;;;;;5.57;4.53;;;;;;;4.92;71.33;100624.84;5073443;28;20878;-79
2022/04/11 03:13:11;;;;;;;7.73;5.43;;;;;;;4.89;71.24;100622.56;5092059;28;20392;-79
2022/04/11 03:15:36;;;;;;;6.40;5.00;;;;;;;4.91;71.19;100619.66;5075598;28;20409;-79
2022/04/11 03:18:01;;;;;;;5.13;4.23;;;;;;;4.82;70.57;100613.66;5084027;28;20395;-79
2022/04/11 03:20:27;;;;;;;5.70;4.17;;;;;;;4.79;70.73;100615.94;5071758;28;20388;-79
2022/04/11 03:22:52;;;;;;;5.05;4.07;;;;;;;4.72;70.67;100613.22;5090641;28;20405;-79
2022/04/11 03:25:17;;;;;;;6.70;4.23;;;;;;;4.72;70.62;100608.69;5079928;28;20855;-79
2022/04/11 03:27:43;;;;;;;5.27;3.87;;;;;;;4.80;71.55;100618.44;5091734;28;20398;-79
2022/04/11 03:30:08;;;;;;;4.33;3.87;;;;;;;4.83;71.45;100609.97;5080816;28;20412;-78
2022/04/11 03:32:34;;;;;;;6.53;4.25;;;;;;;4.84;70.89;100597.38;5081187;28;20416;-79
2022/04/11 03:34:59;;;;;;;4.83;4.20;;;;;;;4.84;71.06;100606.22;5083426;28;20455;-78
2022/04/11 03:37:25;;;;;;;8.03;4.20;;;;;;;4.81;71.53;100600.47;5089564;28;20398;-78
2022/04/11 03:39:50;;;;;;;6.78;4.57;;;;;;;4.75;71.45;100603.94;5083213;28;20388;-78
2022/04/11 03:42:15;;;;;;;6.47;4.60;;;;;;;4.71;71.49;100607.03;5083980;28;20930;-79
2022/04/11 03:44:42;;;;;;;5.27;4.27;;;;;;;4.67;71.68;100611.19;5088842;28;20513;-79
2022/04/11 03:47:08;;;;;;;4.53;3.80;;;;;;;4.65;71.34;100613.22;5071513;28;20392;-79
2022/04/11 03:49:33;;;;;;;6.23;4.30;;;;;;;4.64;71.42;100611.56;5071343;28;20393;-78
2022/04/11 03:51:59;;;;;;;4.33;3.80;;;;;;;4.63;71.77;100611.78;5078537;28;20416;-78
2022/04/11 03:54:24;;;;;;;7.70;4.77;;;;;;;4.62;71.71;100613.63;5085368;28;20408;-79
2022/04/11 03:56:49;;;;;;;7.63;4.23;;;;;;;4.56;71.14;100611.75;5087665;28;20439;-79
2022/04/11 03:59:14;;;;;;;9.37;5.90;;;;;;;4.51;70.51;100608.03;5077955;28;20509;-79
2022/04/11 04:01:40;;;;;;;5.85;4.65;;;;;;;4.41;70.80;100602.22;5079404;28;20402;-79
2022/04/11 04:04:06;;;;;;;7.93;4.90;;;;;;;4.41;70.55;100596.84;5089230;28;20402;-78
2022/04/11 04:06:31;;;;;;;8.07;5.97;;;;;;;4.42;70.65;100598.47;5089766;28;20444;-78
2022/04/11 04:08:56;;;;;;;11.03;6.13;;;;;;;4.43;70.21;100592.94;5081347;28;20754;-79
2022/04/11 04:11:22;;;;;;;6.00;4.80;;;;;;;4.41;70.36;100594.16;5082850;28;20401;-79
2022/04/11 04:13:47;;;;;;;8.90;5.07;;;;;;;4.34;70.23;100594.16;5090657;28;20410;-78
2022/04/11 04:16:12;;;;;;;6.20;4.90;;;;;;;4.33;70.05;100588.97;5077510;28;20403;-79
2022/04/11 04:18:37;;;;;;;8.00;4.83;;;;;;;4.29;69.92;100593.91;5087826;28;20508;-79
2022/04/11 04:21:03;;;;;;;9.13;4.63;;;;;;;4.29;69.95;100596.59;5087170;28;20406;-79
2022/04/11 04:23:28;;;;;;;6.10;4.20;;;;;;;4.34;69.46;100596.00;5086859;28;20480;-79
2022/04/11 04:25:54;;;;;;;6.73;4.43;;;;;;;4.35;69.62;100600.31;5090769;28;20389;-79
2022/04/11 04:28:19;;;;;;;8.10;4.93;;;;;;;4.38;69.60;100595.38;5091486;28;20454;-79
2022/04/11 04:30:45;;;;;;;6.67;4.60;;;;;;;4.42;70.06;100595.78;5095092;28;20397;-79
2022/04/11 04:33:12;;;;;;;8.47;4.53;;;;;;;4.46;70.38;100597.06;5087201;28;20418;-79
2022/04/11 04:35:37;;;;;;;9.10;4.53;;;;;;;4.45;70.53;100598.91;5088516;28;20915;-80
2022/04/11 04:38:03;;;;;;;6.87;4.43;;;;;;;4.41;70.53;100592.28;5085643;28;20411;-79
2022/04/11 04:40:29;;;;;;;6.03;4.47;;;;;;;4.40;71.06;100584.44;5081649;28;20517;-79
2022/04/11 04:42:54;;;;;;;7.07;4.78;;;;;;;4.39;71.12;100583.63;5088639;28;20498;-79
2022/04/11 04:45:20;;;;;;;7.70;4.97;;;;;;;4.37;71.18;100577.63;5089984;28;20492;-79
2022/04/11 04:47:45;;;;;;;6.33;4.50;;;;;;;4.37;71.49;100574.13;5091629;28;20409;-79
2022/04/11 04:50:10;;;;;;;9.37;5.27;;;;;;;4.36;71.44;100580.50;5075870;28;20857;-78
2022/04/11 04:52:38;;;;;;;7.53;4.87;;;;;;;4.37;71.53;100571.44;5075981;28;20411;-83
2022/04/11 04:55:03;;;;;;;8.00;5.20;;;;;;;4.35;71.28;100578.84;5080330;28;20925;-77
2022/04/11 04:57:29;;;;;;;8.68;4.97;;;;;;;4.29;70.85;100576.97;5082334;28;20414;-78
2022/04/11 04:59:55;;;;;;;6.80;5.23;;;;;;;4.31;70.90;100569.56;5084769;28;20917;-78
2022/04/11 05:02:20;;;;;;;7.45;5.38;;;;;;;4.27;70.30;100577.19;5083481;28;20842;-79
2022/04/11 05:04:45;;;;;;;6.93;4.83;;;;;;;4.23;70.10;100572.41;5089825;28;20502;-79
2022/04/11 05:07:11;;;;;;;8.60;5.50;;;;;;;4.27;70.43;100584.41;5090493;28;20397;-78
2022/04/11 05:09:36;;;;;;;8.50;5.57;;;;;;;4.23;70.55;100580.47;5085348;28;20457;-78
2022/04/11 05:12:02;;;;;;;8.13;6.20;;;;;;;4.21;70.42;100580.69;5084258;28;20513;-78
2022/04/11 05:14:27;;;;;;;9.18;6.35;;;;;;;4.22;70.45;100574.28;5086359;28;20487;-78
2022/04/11 05:16:52;;;;;;;12.10;7.20;;;;;;;4.22;70.43;100576.94;5092120;28;20402;-79
2022/04/11 05:19:18;;;;;;;9.67;6.47;;;;;;;4.20;70.75;100568.28;5093144;28;20503;-79
2022/04/11 05:21:43;;;;;;;9.77;7.22;;;;;;;4.23;70.65;100567.06;5089555;28;20455;-78
2022/04/11 05:24:08;;;;;;;9.30;7.37;;;;;;;4.22;70.96;100563.53;5084007;28;20436;-79
2022/04/11 05:26:34;;;;;;;8.33;7.23;;;;;;;4.29;70.69;100563.56;5100090;28;20413;-78
2022/04/11 05:28:59;;;;;;;9.90;6.40;;;;;;;4.29;70.45;100564.38;5077457;28;20410;-78
2022/04/11 05:31:24;;;;;;;9.87;7.00;;;;;;;4.41;70.78;100568.13;5078507;28;20392;-78
2022/04/11 05:33:50;;;;;;;9.90;8.13;;;;;;;4.46;70.37;100570.22;5093054;28;20402;-79
2022/04/11 05:36:15;;;;;;;8.93;7.13;;;;;;;4.51;70.14;100571.25;5081914;28;20426;-78
2022/04/11 05:38:41;;;;;;;8.77;6.80;;;;;;;4.57;69.89;100573.16;5084616;28;20450;-78
2022/04/11 05:41:06;;;;;;;9.70;6.60;;;;;;;4.62;69.94;100576.03;5085788;28;20412;-78
2022/04/11 05:43:32;;;;;;;7.23;6.50;;;;;;;4.70;69.35;100583.09;5080658;28;20459;-78
2022/04/11 05:45:57;;;;;;;8.82;6.55;;;;;;;4.76;69.88;100584.13;5082815;28;20990;-81
2022/04/11 05:48:22;;;;;;;10.53;6.43;;;;;;;4.84;69.30;100574.00;5088109;28;20394;-78
2022/04/11 05:50:47;;;;;;;9.40;5.93;;;;;;;4.90;68.88;100581.25;5078917;28;20409;-78
2022/04/11 05:53:13;;;;;;;6.40;5.50;;;;;;;4.96;69.03;100580.44;5085576;28;20418;-78
2022/04/11 05:55:38;;;;;;;7.90;5.80;;;;;;;5.02;69.32;100579.63;5078223;28;20410;-78
2022/04/11 05:58:03;;;;;;;10.07;6.43;;;;;;;5.08;69.08;100575.28;5086674;28;20401;-77
2022/04/11 06:00:29;;;;;;;9.47;6.63;;;;;;;5.21;68.60;100575.28;5094488;28;20815;-77
2022/04/11 06:02:54;;;;;;;9.82;6.50;;;;;;;5.28;68.37;100583.31;5087291;28;20410;-78
2022/04/11 06:05:20;;;;;;;9.27;6.67;;;;;;;5.34;68.38;100575.25;5081597;28;20386;-77
2022/04/11 06:07:45;;;;;;;12.93;6.53;;;;;;;5.42;68.28;100579.59;5085039;28;20480;-78
2022/04/11 06:10:11;;;;;;;7.80;5.70;;;;;;;5.46;67.73;100576.31;5076959;28;20403;-77
2022/04/11 06:12:37;;;;;;;5.95;5.43;;;;;;;5.56;67.98;100586.63;5088338;28;20485;-78
2022/04/11 06:15:03;;;;;;;8.10;5.47;;;;;;;5.64;67.44;100583.69;5080257;28;20428;-79
2022/04/11 06:17:29;;;;;;;6.90;5.13;;;;;;;5.71;67.19;100584.53;5081877;28;20388;-78
2022/04/11 06:19:56;;;;;;;5.88;4.75;;;;;;;5.78;66.85;100579.13;5086248;28;20401;-77
2022/04/11 06:22:23;;;;;;;7.37;5.63;;;;;;;5.85;67.17;100582.63;5092010;28;20398;-78
2022/04/11 06:24:49;;;;;;;5.53;4.73;;;;;;;5.92;66.95;100575.41;5084053;28;20948;-78
2022/04/11 06:27:15;;;;;;;7.88;4.82;;;;;;;6.00;66.36;100573.28;5083366;28;20475;-78
2022/04/11 06:29:41;;;;;;;6.00;4.70;;;;;;;6.10;66.66;100572.84;5089444;28;20406;-78
2022/04/11 06:32:07;;;;;;;7.10;4.72;;;;;;;6.16;65.69;100569.28;5081718;28;20398;-78
2022/04/11 06:34:34;;;;;;;6.35;4.45;;;;;;;6.20;65.68;100579.44;5090643;28;20440;-78
2022/04/11 06:36:59;;;;;;;6.03;4.30;;;;;;;6.26;65.01;100583.13;5083151;28;20813;-78
2022/04/11 06:39:24;;;;;;;5.83;4.47;;;;;;;6.33;65.26;100573.16;5084765;28;20386;-78
2022/04/11 06:41:50;;;;;;;5.80;4.50;;;;;;;6.44;65.54;100577.88;5082439;28;20435;-78
2022/04/11 06:44:15;;;;;;;7.20;4.25;;;;;;;6.54;64.80;100569.34;5074942;28;20398;-78
2022/04/11 06:46:41;;;;;;;5.83;4.70;;;;;;;6.63;64.51;100571.56;5079570;28;20418;-78
2022/04/11 06:49:06;;;;;;;8.77;5.20;;;;;;;6.75;63.99;100566.31;5088161;28;20417;-78
2022/04/11 06:51:31;;;;;;;7.87;5.23;;;;;;;6.84;63.62;100558.78;5073545;28;20809;-78
2022/04/11 06:53:57;;;;;;;7.90;4.90;;;;;;;6.92;63.70;100564.72;5088421;28;20396;-79
2022/04/11 06:56:22;;;;;;;6.50;4.70;;;;;;;7.00;63.71;100558.25;5083188;28;20508;-80
2022/04/11 06:58:47;;;;;;;7.43;4.90;;;;;;;7.04;64.26;100556.78;5087705;28;20413;-79
2022/04/11 07:01:13;;;;;;;7.63;5.07;;;;;;;7.08;63.25;100561.47;5082165;28;20431;-80
2022/04/11 07:03:38;;;;;;;5.47;4.35;;;;;;;7.11;62.31;100563.75;5087771;28;20408;-82
2022/04/11 07:06:03;;;;;;;5.47;4.30;;;;;;;7.17;62.08;100567.44;5104956;28;20414;-80
2022/04/11 07:08:29;;;;;;;6.50;3.95;;;;;;;7.21;61.76;100558.69;5080590;28;20404;-80
2022/04/11 07:10:54;;;;;;;7.67;5.47;;;;;;;7.27;61.35;100565.91;5084669;28;20481;-80
2022/04/11 07:13:20;;;;;;;8.10;5.17;;;;;;;7.41;62.35;100565.78;5075653;28;20396;-79
2022/04/11 07:15:45;;;;;;;7.38;4.75;;;;;;;7.52;62.07;100568.56;5086128;28;20827;-79
2022/04/11 07:18:11;;;;;;;7.20;3.90;;;;;;;7.67;62.12;100569.03;5075465;28;20486;-79
2022/04/11 07:20:38;;;;;;;4.10;3.70;;;;;;;7.77;61.67;100566.63;5071906;28;20481;-80
2022/04/11 07:23:03;;;;;;;8.38;3.80;;;;;;;7.80;60.64;100562.69;5072022;28;20411;-80
2022/04/11 07:25:29;;;;;;;7.13;3.80;;;;;;;7.83;60.09;100564.94;5085832;28;20411;-80
2022/04/11 07:27:55;;;;;;;4.80;4.03;;;;;;;7.91;60.40;100567.31;5074195;28;20421;-78
2022/04/11 07:30:21;;;;;;;4.90;3.78;;;;;;;7.99;60.56;100567.03;5078709;28;20394;-80
2022/04/11 07:32:46;;;;;;;6.75;4.00;;;;;;;8.09;60.31;100569.22;5086700;28;20386;-80
2022/04/11 07:35:11;;;;;;;7.43;3.63;;;;;;;8.18;59.06;100576.78;5072054;28;20732;-79
2022/04/11 07:37:37;;;;;;;9.38;4.13;;;;;;;8.33;59.05;100571.03;5076930;28;20397;-79
2022/04/11 07:40:03;;;;;;;4.37;3.27;;;;;;;8.43;58.48;100578.59;5071132;28;20434;-80
2022/04/11 07:42:28;;;;;;;4.13;3.35;;;;;;;8.50;58.76;100574.72;5071348;28;20388;-79
2022/04/11 07:44:54;;;;;;;6.47;3.33;;;;;;;8.53;58.87;100576.97;5073955;28;20749;-80
2022/04/11 07:47:19;;;;;;;5.77;3.57;;;;;;;8.61;58.11;100573.97;5085742;28;20855;-80
2022/04/11 07:49:44;;;;;;;3.63;2.90;;;;;;;8.73;57.74;100579.38;5079961;28;20394;-80
2022/04/11 07:52:10;;;;;;;3.93;3.07;;;;;;;8.82;57.70;100578.03;5087173;28;20410;-80
2022/04/11 07:54:36;;;;;;;5.45;3.20;;;;;;;8.88;56.68;100576.28;5078163;28;20919;-80
2022/04/11 07:57:02;;;;;;;4.90;2.85;;;;;;;8.98;56.59;100568.44;5086112;28;20494;-80
2022/04/11 07:59:27;;;;;;;4.10;3.08;;;;;;;9.10;55.92;100575.50;5076300;28;20937;-80
2022/04/11 08:01:52;;;;;;;5.50;3.00;;;;;;;9.22;56.76;100572.84;5070776;28;20439;-80
2022/04/11 08:04:18;;;;;;;4.37;2.93;;;;;;;9.31;56.22;100566.84;5070902;28;20412;-80
2022/04/11 08:06:43;;;;;;;3.35;2.53;;;;;;;9.38;55.31;100567.53;5076712;28;20823;-79
2022/04/11 08:09:09;;;;;;;3.30;2.73;;;;;;;9.50;54.56;100561.31;5071289;28;20388;-80
2022/04/11 08:11:34;;;;;;;3.23;2.47;;;;;;;9.61;54.00;100558.63;5070916;28;20490;-80
2022/04/11 08:14:00;;;;;;;13.98;3.40;;;;;;;9.80;53.86;100562.00;5071774;28;20412;-80
2022/04/11 08:16:25;;;;;;;2.77;2.33;;;;;;;9.87;53.28;100560.84;5088393;28;20412;-80
2022/04/11 08:18:50;;;;;;;2.60;2.40;;;;;;;9.98;52.90;100561.06;5086758;28;20431;-80
2022/04/11 08:21:15;;;;;;;10.83;2.50;;;;;;;10.11;52.72;100552.66;5071209;28;20897;-80
2022/04/11 08:23:41;;;;;;;4.60;2.20;;;;;;;10.25;52.55;100548.63;5082240;28;20390;-80
2022/04/11 08:26:06;;;;;;;3.03;1.70;;;;;;;10.37;51.66;100547.53;5087429;28;20402;-80
2022/04/11 08:28:31;;;;;;;5.13;2.07;;;;;;;10.46;50.54;100545.28;5076181;28;20893;-80
2022/04/11 08:30:57;;;;;;;3.63;2.00;;;;;;;10.52;51.62;100538.06;5082299;28;20424;-80
2022/04/11 08:33:22;;;;;;;2.13;1.93;;;;;;;10.66;51.16;100542.13;5083993;28;20417;-80
2022/04/11 08:35:47;;;;;;;2.30;1.63;;;;;;;10.79;50.28;100533.69;5075182;28;20407;-80
2022/04/11 08:38:13;;;;;;;3.23;1.80;;;;;;;11.00;50.10;100532.94;5075043;28;20398;-80
2022/04/11 08:40:38;;;;;;;2.30;1.50;;;;;;;11.21;49.79;100529.50;5079038;28;20426;-80
2022/04/11 08:43:05;;;;;;;1.97;1.77;;;;;;;11.45;49.33;100522.00;5075295;28;20567;-80
2022/04/11 08:45:30;;;;;;;1.98;1.88;;;;;;;11.62;47.83;100519.28;5086637;28;20884;-80
2022/04/11 08:47:58;;;;;;;4.85;2.60;;;;;;;11.71;47.43;100525.94;5073327;28;20473;-80
2022/04/11 08:50:24;;;;;;;2.60;2.08;;;;;;;11.89;46.57;100525.63;5083934;28;20384;-80
2022/04/11 08:52:51;;;;;;;6.72;2.70;;;;;;;12.14;45.75;100525.13;5081970;28;20465;-80
2022/04/11 08:55:17;;;;;;;3.03;1.90;;;;;;;12.47;45.14;100525.81;5080900;28;20410;-81
2022/04/11 08:57:42;;;;;;;3.03;2.30;;;;;;;12.91;43.60;100526.50;5072726;28;20383;-81
2022/04/11 09:00:11;;;;;;;3.70;2.27;;;;;;;13.31;42.35;100515.16;5077318;28;20386;-81
2022/04/11 09:02:38;;;;;;;3.10;1.98;;;;;;;14.08;41.60;100514.50;5083905;28;20388;-81
2022/04/11 09:05:04;;;;;;;2.10;1.63;;;;;;;14.70;40.92;100508.16;5089345;28;20428;-81
2022/04/11 09:07:50;;;;;;;2.00;1.85;;;;;;;15.53;38.65;100510.34;5077686;28;20410;-81
2022/04/11 09:10:38;;;;;;;1.98;1.80;;;;;;;16.82;36.73;100507.63;5085683;28;20399;-81
2022/04/11 09:13:06;;;;;;;3.42;1.88;;;;;;;17.93;32.82;100501.09;5090209;28;20915;-81
2022/04/11 09:15:47;;;;;;;1.50;1.25;;;;;;;18.63;31.67;100500.19;5078456;28;20412;-82
2022/04/11 09:18:13;;;;;;;1.58;1.25;;;;;;;18.63;31.22;100493.88;5086017;28;20433;-82
2022/04/11 09:20:43;;;;;;;2.00;1.13;;;;;;;18.97;31.09;100491.69;5078664;28;20439;-82
2022/04/11 09:23:19;;;;;;;3.13;1.27;;;;;;;19.02;29.72;100497.09;5089348;28;20393;-82
2022/04/11 09:25:44;;;;;;;2.03;1.10;;;;;;;19.42;29.05;100487.38;5073303;28;20499;-82
2022/04/11 09:28:11;;;;;;;1.50;1.33;;;;;;;19.97;28.83;100492.91;5072045;28;20538;-82
2022/04/11 09:30:43;;;;;;;1.17;1.17;;;;;;;20.94;28.00;100493.22;5088765;28;20678;-82
2022/04/11 09:33:10;;;;;;;1.80;0.95;;;;;;;22.24;25.79;100485.31;5073975;28;20423;-82
2022/04/11 09:35:40;;;;;;;2.33;1.65;;;;;;;23.37;24.05;100491.66;5073094;28;20759;-82
2022/04/11 09:38:15;;;;;;;2.60;1.10;;;;;;;24.16;23.47;100484.41;5085348;28;20469;-81
2022/04/11 09:40:48;;;;;;;2.70;1.25;;;;;;;24.66;22.17;100480.78;5077631;28;20437;-81
2022/04/11 09:43:14;;;;;;;2.30;1.40;;;;;;;25.11;21.57;100486.44;5089005;28;20395;-82
2022/04/11 09:45:40;;;;;;;0.90;0.90;;;;;;;25.85;20.54;100489.06;5082638;28;20374;-83
2022/04/11 09:48:06;;;;;;;1.20;1.20;;;;;;;26.22;19.89;100487.91;5088693;28;20414;-82
2022/04/11 09:50:32;;;;;;;1.27;0.95;;;;;;;26.70;19.87;100481.47;5077008;28;20414;-83
2022/04/11 09:53:16;;;;;;;2.23;1.23;;;;;;;26.16;20.10;100482.91;5077668;28;20398;-81
2022/04/11 09:55:45;;;;;;;1.77;1.10;;;;;;;26.05;20.64;100479.78;5091434;28;20437;-83
2022/04/11 09:58:11;;;;;;;1.35;0.82;;;;;;;25.90;19.95;100480.50;5078732;28;20475;-83
2022/04/11 10:00:39;;;;;;;0.88;0.88;;;;;;;26.21;19.44;100468.84;5089278;28;20390;-83
2022/04/11 10:03:07;;;;;;;1.63;0.90;;;;;;;26.71;18.59;100462.78;5073473;28;20400;-83
2022/04/11 10:05:34;;;;;;;0.80;0.80;;;;;;;27.63;17.69;100457.84;5076653;28;20794;-84
2022/04/11 10:08:02;;;;;;;1.20;1.10;;;;;;;27.94;17.31;100465.38;5080629;28;20911;-82
2022/04/11 10:10:27;;;;;;;1.52;1.08;;;;;;;27.88;17.31;100454.88;5084665;28;20402;-83
2022/04/11 10:12:53;;;;;;;1.83;1.10;;;;;;;28.48;17.26;100454.34;5076581;28;20422;-83
2022/04/11 10:15:21;;;;;;;1.08;0.90;;;;;;;28.70;17.12;100452.84;5082542;28;20397;-83
2022/04/11 10:17:49;;;;;;;1.50;1.02;;;;;;;29.60;16.00;100452.22;5087337;28;20446;-83
2022/04/11 10:20:23;;;;;;;1.38;0.73;;;;;;;30.15;15.81;100450.72;5082679;28;20827;-83
2022/04/11 10:22:55;;;;;;;1.40;0.90;;;;;;;30.14;15.55;100463.09;5074880;28;20763;-81
2022/04/11 10:25:21;;;;;;;0.90;0.90;;;;;;;29.63;15.59;100459.84;5085422;28;20397;-81
2022/04/11 10:27:46;;;;;;;1.27;1.00;;;;;;;30.30;15.19;100455.34;5084152;28;20412;-84
2022/04/11 10:30:29;;;;;;;1.27;1.00;;;;;;;31.52;14.27;100447.25;5092430;28;20762;-81
2022/04/11 10:32:55;;;;;;;1.02;0.93;;;;;;;32.02;13.82;100442.84;5082746;28;20429;-82
2022/04/11 10:35:39;;;;;;;1.10;0.90;;;;;;;32.19;13.50;100442.22;5083335;28;20412;-81
2022/04/11 10:38:06;;;;;;;1.13;1.02;;;;;;;32.29;13.31;100439.47;5073704;28;20411;-82
2022/04/11 10:40:32;;;;;;;1.90;0.80;;;;;;;32.10;14.13;100436.16;5084825;28;20391;-81
2022/04/11 10:43:07;;;;;;;1.30;0.88;;;;;;;32.21;14.22;100428.59;5085031;28;21355;-82
2022/04/11 10:45:36;;;;;;;1.77;1.10;;;;;;;32.30;14.50;100429.88;5089537;28;20453;-81
2022/04/11 10:48:02;;;;;;;1.25;1.13;;;;;;;32.41;13.59;100427.09;5075212;28;20522;-82
2022/04/11 10:50:36;;;;;;;1.52;1.15;;;;;;;33.11;13.43;100420.22;5087635;28;20383;-83
2022/04/11 10:53:24;;;;;;;1.20;0.82;;;;;;;32.64;13.36;100410.81;5085578;28;20409;-82
2022/04/11 10:55:58;;;;;;;2.03;1.00;;;;;;;32.63;13.59;100392.41;5078935;28;20431;-81
2022/04/11 10:58:42;;;;;;;1.90;1.15;;;;;;;32.81;13.85;100403.66;5070172;28;20506;-81
2022/04/11 11:01:09;;;;;;;2.95;0.93;;;;;;;32.97;13.24;100398.47;5087283;28;20461;-81
2022/04/11 11:03:34;;;;;;;1.90;1.15;;;;;;;33.28;13.74;100394.97;5075910;28;20388;-81
2022/04/11 11:06:20;;;;;;;1.00;0.80;;;;;;;33.47;12.85;100392.97;5076970;28;20446;-82
2022/04/11 11:08:46;;;;;;;0.93;0.93;;;;;;;33.20;12.90;100387.72;5084140;28;20408;-82
2022/04/11 11:11:27;;;;;;;1.40;0.80;;;;;;;33.15;13.38;100399.38;5088152;28;20395;-83
2022/04/11 11:13:54;;;;;;;1.70;1.10;;;;;;;33.22;12.65;100392.97;5084769;28;20399;-82
2022/04/11 11:16:20;;;;;;;1.48;0.95;;;;;;;33.13;13.11;100392.56;5074482;28;20396;-82
2022/04/11 11:18:51;;;;;;;3.23;1.10;;;;;;;32.88;13.09;100387.66;5071379;28;20914;-83
2022/04/11 11:21:47;;;;;;;3.40;0.82;;;;;;;31.94;14.22;100374.75;5088244;28;20389;-84
2022/04/11 11:24:14;;;;;;;1.53;1.30;;;;;;;32.27;13.48;100380.16;5082111;28;20475;-83
2022/04/11 11:26:53;;;;;;;2.17;0.90;;;;;;;32.75;13.73;100365.97;5077959;28;20902;-84
2022/04/11 11:29:40;;;;;;;2.70;1.10;;;;;;;32.49;13.52;100360.63;5090613;28;20398;-84